sensor_id;sensor_type;location;lat;lon;timestamp;temperature;humidity
20866;DHT22;10593;48.398;10.698;2023-12-14T00:01:46;9.80;67.60
20866;DHT22;10593;48.398;10.698;2023-12-14T00:04:12;9.80;67.60
20866;DHT22;10593;48.398;10.698;2023-12-14T00:06:37;9.80;67.70
20866;DHT22;10593;48.398;10.698;2023-12-14T00:09:03;9.80;67.60
20866;DHT22;10593;48.398;10.698;2023-12-14T00:11:29;9.80;67.50
20866;DHT22;10593;48.398;10.698;2023-12-14T00:13:55;9.80;67.50
20866;DHT22;10593;48.398;10.698;2023-12-14T00:16:21;9.70;67.50
20866;DHT22;10593;48.398;10.698;2023-12-14T00:18:47;9.80;67.60
20866;DHT22;10593;48.398;10.698;2023-12-14T00:21:13;9.70;67.40
20866;DHT22;10593;48.398;10.698;2023-12-14T00:23:38;9.80;67.50
20866;DHT22;10593;48.398;10.698;2023-12-14T00:26:04;9.70;67.40
20866;DHT22;10593;48.398;10.698;2023-12-14T00:28:30;9.70;67.40
20866;DHT22;10593;48.398;10.698;2023-12-14T00:30:55;9.70;67.40
20866;DHT22;10593;48.398;10.698;2023-12-14T00:33:21;9.70;67.40
20866;DHT22;10593;48.398;10.698;2023-12-14T00:35:48;9.70;67.30
20866;DHT22;10593;48.398;10.698;2023-12-14T00:38:13;9.70;67.30
20866;DHT22;10593;48.398;10.698;2023-12-14T00:40:39;9.70;67.30
20866;DHT22;10593;48.398;10.698;2023-12-14T00:43:05;9.70;67.30
20866;DHT22;10593;48.398;10.698;2023-12-14T00:45:30;9.70;67.30
20866;DHT22;10593;48.398;10.698;2023-12-14T00:47:56;9.70;67.20
20866;DHT22;10593;48.398;10.698;2023-12-14T00:50:22;9.70;67.30
20866;DHT22;10593;48.398;10.698;2023-12-14T00:52:47;9.70;67.30
20866;DHT22;10593;48.398;10.698;2023-12-14T00:55:13;9.60;67.20
20866;DHT22;10593;48.398;10.698;2023-12-14T00:57:39;9.60;67.20
20866;DHT22;10593;48.398;10.698;2023-12-14T01:00:05;9.60;67.20
20866;DHT22;10593;48.398;10.698;2023-12-14T01:02:31;9.60;67.20
20866;DHT22;10593;48.398;10.698;2023-12-14T01:04:57;9.60;67.20
20866;DHT22;10593;48.398;10.698;2023-12-14T01:07:22;9.60;67.30
20866;DHT22;10593;48.398;10.698;2023-12-14T01:09:48;9.60;67.30
20866;DHT22;10593;48.398;10.698;2023-12-14T01:12:14;9.60;67.30
20866;DHT22;10593;48.398;10.698;2023-12-14T01:14:40;9.60;67.30
20866;DHT22;10593;48.398;10.698;2023-12-14T01:17:05;9.60;67.30
20866;DHT22;10593;48.398;10.698;2023-12-14T01:19:31;9.60;67.30
20866;DHT22;10593;48.398;10.698;2023-12-14T01:21:57;9.60;67.30
20866;DHT22;10593;48.398;10.698;2023-12-14T01:24:22;9.60;67.30
20866;DHT22;10593;48.398;10.698;2023-12-14T01:26:48;9.60;67.20
20866;DHT22;10593;48.398;10.698;2023-12-14T01:29:14;9.60;67.10
20866;DHT22;10593;48.398;10.698;2023-12-14T01:31:39;9.60;67.10
20866;DHT22;10593;48.398;10.698;2023-12-14T01:34:05;9.60;67.10
20866;DHT22;10593;48.398;10.698;2023-12-14T01:36:31;9.50;67.00
20866;DHT22;10593;48.398;10.698;2023-12-14T01:38:57;9.50;67.00
20866;DHT22;10593;48.398;10.698;2023-12-14T01:41:22;9.60;67.10
20866;DHT22;10593;48.398;10.698;2023-12-14T01:43:48;9.50;67.00
20866;DHT22;10593;48.398;10.698;2023-12-14T01:46:14;9.50;67.00
20866;DHT22;10593;48.398;10.698;2023-12-14T01:48:41;9.50;67.00
20866;DHT22;10593;48.398;10.698;2023-12-14T01:51:07;9.50;67.00
20866;DHT22;10593;48.398;10.698;2023-12-14T01:53:33;9.50;67.00
20866;DHT22;10593;48.398;10.698;2023-12-14T01:55:59;9.50;67.00
20866;DHT22;10593;48.398;10.698;2023-12-14T01:58:25;9.50;67.00
20866;DHT22;10593;48.398;10.698;2023-12-14T02:01:20;9.50;67.00
20866;DHT22;10593;48.398;10.698;2023-12-14T02:03:52;9.50;67.00
20866;DHT22;10593;48.398;10.698;2023-12-14T02:06:20;9.50;67.00
20866;DHT22;10593;48.398;10.698;2023-12-14T02:08:46;9.40;66.90
20866;DHT22;10593;48.398;10.698;2023-12-14T02:11:12;9.40;66.90
20866;DHT22;10593;48.398;10.698;2023-12-14T02:13:38;9.50;67.00
20866;DHT22;10593;48.398;10.698;2023-12-14T02:16:04;9.40;66.90
20866;DHT22;10593;48.398;10.698;2023-12-14T02:18:30;9.40;66.90
20866;DHT22;10593;48.398;10.698;2023-12-14T02:20:55;9.40;66.90
20866;DHT22;10593;48.398;10.698;2023-12-14T02:23:21;9.50;67.00
20866;DHT22;10593;48.398;10.698;2023-12-14T02:25:47;9.40;66.90
20866;DHT22;10593;48.398;10.698;2023-12-14T02:28:12;9.40;66.90
20866;DHT22;10593;48.398;10.698;2023-12-14T02:30:38;9.40;66.90
20866;DHT22;10593;48.398;10.698;2023-12-14T02:33:04;9.40;66.90
20866;DHT22;10593;48.398;10.698;2023-12-14T02:35:29;9.40;66.90
20866;DHT22;10593;48.398;10.698;2023-12-14T02:37:55;9.40;66.90
20866;DHT22;10593;48.398;10.698;2023-12-14T02:40:21;9.40;66.90
20866;DHT22;10593;48.398;10.698;2023-12-14T02:42:47;9.40;66.90
20866;DHT22;10593;48.398;10.698;2023-12-14T02:45:13;9.40;66.90
20866;DHT22;10593;48.398;10.698;2023-12-14T02:47:38;9.40;66.90
20866;DHT22;10593;48.398;10.698;2023-12-14T02:50:05;9.40;66.90
20866;DHT22;10593;48.398;10.698;2023-12-14T02:52:31;9.40;66.90
20866;DHT22;10593;48.398;10.698;2023-12-14T02:54:57;9.30;66.80
20866;DHT22;10593;48.398;10.698;2023-12-14T02:57:22;9.30;66.80
20866;DHT22;10593;48.398;10.698;2023-12-14T02:59:48;9.30;66.80
20866;DHT22;10593;48.398;10.698;2023-12-14T03:02:14;9.30;66.80
20866;DHT22;10593;48.398;10.698;2023-12-14T03:04:40;9.30;66.80
20866;DHT22;10593;48.398;10.698;2023-12-14T03:07:06;9.30;66.80
20866;DHT22;10593;48.398;10.698;2023-12-14T03:09:33;9.30;66.80
20866;DHT22;10593;48.398;10.698;2023-12-14T03:12:00;9.30;66.80
20866;DHT22;10593;48.398;10.698;2023-12-14T03:14:26;9.30;66.80
20866;DHT22;10593;48.398;10.698;2023-12-14T03:16:57;9.30;66.80
20866;DHT22;10593;48.398;10.698;2023-12-14T03:19:24;9.30;66.80
20866;DHT22;10593;48.398;10.698;2023-12-14T03:21:50;9.30;66.80
20866;DHT22;10593;48.398;10.698;2023-12-14T03:24:15;9.30;66.80
20866;DHT22;10593;48.398;10.698;2023-12-14T03:26:42;9.30;66.80
20866;DHT22;10593;48.398;10.698;2023-12-14T03:29:08;9.20;66.70
20866;DHT22;10593;48.398;10.698;2023-12-14T03:31:34;9.20;66.70
20866;DHT22;10593;48.398;10.698;2023-12-14T03:34:00;9.20;66.70
20866;DHT22;10593;48.398;10.698;2023-12-14T03:36:26;9.20;66.70
20866;DHT22;10593;48.398;10.698;2023-12-14T03:38:53;9.20;66.70
20866;DHT22;10593;48.398;10.698;2023-12-14T03:41:19;9.20;66.70
20866;DHT22;10593;48.398;10.698;2023-12-14T03:43:44;9.20;66.70
20866;DHT22;10593;48.398;10.698;2023-12-14T03:46:10;9.20;66.70
20866;DHT22;10593;48.398;10.698;2023-12-14T03:48:36;9.20;66.70
20866;DHT22;10593;48.398;10.698;2023-12-14T03:51:05;9.20;66.70
20866;DHT22;10593;48.398;10.698;2023-12-14T03:53:31;9.20;66.70
20866;DHT22;10593;48.398;10.698;2023-12-14T03:56:00;9.20;66.70
20866;DHT22;10593;48.398;10.698;2023-12-14T03:58:26;9.20;66.70
20866;DHT22;10593;48.398;10.698;2023-12-14T04:00:52;9.20;66.70
20866;DHT22;10593;48.398;10.698;2023-12-14T04:03:18;9.20;66.70
20866;DHT22;10593;48.398;10.698;2023-12-14T04:05:44;9.20;66.70
20866;DHT22;10593;48.398;10.698;2023-12-14T04:08:10;9.20;66.70
20866;DHT22;10593;48.398;10.698;2023-12-14T04:10:36;9.20;66.70
20866;DHT22;10593;48.398;10.698;2023-12-14T04:13:01;9.10;66.70
20866;DHT22;10593;48.398;10.698;2023-12-14T04:15:27;9.20;66.80
20866;DHT22;10593;48.398;10.698;2023-12-14T04:17:53;9.20;66.90
20866;DHT22;10593;48.398;10.698;2023-12-14T04:20:19;9.10;66.80
20866;DHT22;10593;48.398;10.698;2023-12-14T04:22:44;9.20;67.00
20866;DHT22;10593;48.398;10.698;2023-12-14T04:25:10;9.20;66.90
20866;DHT22;10593;48.398;10.698;2023-12-14T04:27:36;9.10;66.80
20866;DHT22;10593;48.398;10.698;2023-12-14T04:30:02;9.10;66.80
20866;DHT22;10593;48.398;10.698;2023-12-14T04:32:30;9.10;66.80
20866;DHT22;10593;48.398;10.698;2023-12-14T04:34:55;9.10;67.50
20866;DHT22;10593;48.398;10.698;2023-12-14T04:37:21;9.10;66.90
20866;DHT22;10593;48.398;10.698;2023-12-14T04:39:47;9.10;66.80
20866;DHT22;10593;48.398;10.698;2023-12-14T04:42:13;9.10;66.80
20866;DHT22;10593;48.398;10.698;2023-12-14T04:44:38;9.10;66.90
20866;DHT22;10593;48.398;10.698;2023-12-14T04:47:04;9.10;66.90
20866;DHT22;10593;48.398;10.698;2023-12-14T04:49:30;9.10;66.90
20866;DHT22;10593;48.398;10.698;2023-12-14T04:51:55;9.10;66.90
20866;DHT22;10593;48.398;10.698;2023-12-14T04:54:21;9.10;66.80
20866;DHT22;10593;48.398;10.698;2023-12-14T04:56:47;9.10;66.80
20866;DHT22;10593;48.398;10.698;2023-12-14T04:59:13;9.10;66.70
20866;DHT22;10593;48.398;10.698;2023-12-14T05:01:38;9.10;66.70
20866;DHT22;10593;48.398;10.698;2023-12-14T05:04:04;9.10;66.60
20866;DHT22;10593;48.398;10.698;2023-12-14T05:06:30;9.10;66.60
20866;DHT22;10593;48.398;10.698;2023-12-14T05:08:58;9.10;66.60
20866;DHT22;10593;48.398;10.698;2023-12-14T05:11:24;9.10;66.60
20866;DHT22;10593;48.398;10.698;2023-12-14T05:13:50;9.10;66.60
20866;DHT22;10593;48.398;10.698;2023-12-14T05:16:16;9.00;66.60
20866;DHT22;10593;48.398;10.698;2023-12-14T05:18:41;9.00;66.60
20866;DHT22;10593;48.398;10.698;2023-12-14T05:21:07;9.00;66.60
20866;DHT22;10593;48.398;10.698;2023-12-14T05:23:33;9.00;66.60
20866;DHT22;10593;48.398;10.698;2023-12-14T05:25:59;9.00;66.60
20866;DHT22;10593;48.398;10.698;2023-12-14T05:28:25;9.00;66.60
20866;DHT22;10593;48.398;10.698;2023-12-14T05:30:51;9.00;66.70
20866;DHT22;10593;48.398;10.698;2023-12-14T05:33:16;9.00;66.70
20866;DHT22;10593;48.398;10.698;2023-12-14T05:35:42;9.00;66.70
20866;DHT22;10593;48.398;10.698;2023-12-14T05:38:08;9.00;66.70
20866;DHT22;10593;48.398;10.698;2023-12-14T05:40:33;9.00;66.80
20866;DHT22;10593;48.398;10.698;2023-12-14T05:42:59;9.00;66.80
20866;DHT22;10593;48.398;10.698;2023-12-14T05:45:25;9.00;66.80
20866;DHT22;10593;48.398;10.698;2023-12-14T05:47:50;9.00;66.80
20866;DHT22;10593;48.398;10.698;2023-12-14T05:50:16;8.90;66.70
20866;DHT22;10593;48.398;10.698;2023-12-14T05:52:42;8.90;66.70
20866;DHT22;10593;48.398;10.698;2023-12-14T05:55:09;9.00;66.90
20866;DHT22;10593;48.398;10.698;2023-12-14T05:57:36;8.90;66.80
20866;DHT22;10593;48.398;10.698;2023-12-14T06:00:03;9.00;66.90
20866;DHT22;10593;48.398;10.698;2023-12-14T06:02:31;8.90;66.80
20866;DHT22;10593;48.398;10.698;2023-12-14T06:04:58;8.90;66.80
20866;DHT22;10593;48.398;10.698;2023-12-14T06:07:24;8.90;66.80
20866;DHT22;10593;48.398;10.698;2023-12-14T06:09:50;8.90;66.80
20866;DHT22;10593;48.398;10.698;2023-12-14T06:12:16;8.90;66.90
20866;DHT22;10593;48.398;10.698;2023-12-14T06:14:41;8.90;66.90
20866;DHT22;10593;48.398;10.698;2023-12-14T06:17:07;8.90;66.90
20866;DHT22;10593;48.398;10.698;2023-12-14T06:19:33;8.90;67.00
20866;DHT22;10593;48.398;10.698;2023-12-14T06:21:59;8.90;66.90
20866;DHT22;10593;48.398;10.698;2023-12-14T06:24:24;8.90;67.00
20866;DHT22;10593;48.398;10.698;2023-12-14T06:26:50;8.90;66.90
20866;DHT22;10593;48.398;10.698;2023-12-14T06:29:16;8.90;67.00
20866;DHT22;10593;48.398;10.698;2023-12-14T06:31:41;8.90;67.00
20866;DHT22;10593;48.398;10.698;2023-12-14T06:34:07;8.90;67.00
20866;DHT22;10593;48.398;10.698;2023-12-14T06:36:33;8.90;67.00
20866;DHT22;10593;48.398;10.698;2023-12-14T06:39:01;8.90;67.10
20866;DHT22;10593;48.398;10.698;2023-12-14T06:41:28;8.90;67.20
20866;DHT22;10593;48.398;10.698;2023-12-14T06:43:55;8.90;67.20
20866;DHT22;10593;48.398;10.698;2023-12-14T06:46:21;8.90;67.20
20866;DHT22;10593;48.398;10.698;2023-12-14T06:48:47;8.90;67.20
20866;DHT22;10593;48.398;10.698;2023-12-14T06:51:14;8.90;67.30
20866;DHT22;10593;48.398;10.698;2023-12-14T06:53:41;8.90;67.30
20866;DHT22;10593;48.398;10.698;2023-12-14T06:56:07;8.90;67.40
20866;DHT22;10593;48.398;10.698;2023-12-14T06:58:40;8.90;67.40
20866;DHT22;10593;48.398;10.698;2023-12-14T07:01:07;8.90;67.50
20866;DHT22;10593;48.398;10.698;2023-12-14T07:03:40;8.90;67.40
20866;DHT22;10593;48.398;10.698;2023-12-14T07:06:07;8.90;67.50
20866;DHT22;10593;48.398;10.698;2023-12-14T07:08:36;8.90;67.50
20866;DHT22;10593;48.398;10.698;2023-12-14T07:11:02;8.90;67.50
20866;DHT22;10593;48.398;10.698;2023-12-14T07:13:28;8.90;67.50
20866;DHT22;10593;48.398;10.698;2023-12-14T07:15:53;8.90;67.50
20866;DHT22;10593;48.398;10.698;2023-12-14T07:18:19;8.90;67.50
20866;DHT22;10593;48.398;10.698;2023-12-14T07:20:45;8.90;67.50
20866;DHT22;10593;48.398;10.698;2023-12-14T07:23:10;8.90;67.50
20866;DHT22;10593;48.398;10.698;2023-12-14T07:25:36;8.90;67.50
20866;DHT22;10593;48.398;10.698;2023-12-14T07:28:02;8.90;67.50
20866;DHT22;10593;48.398;10.698;2023-12-14T07:30:27;8.90;67.50
20866;DHT22;10593;48.398;10.698;2023-12-14T07:32:53;8.90;67.60
20866;DHT22;10593;48.398;10.698;2023-12-14T07:35:19;8.90;67.60
20866;DHT22;10593;48.398;10.698;2023-12-14T07:37:45;8.90;67.60
20866;DHT22;10593;48.398;10.698;2023-12-14T07:40:11;8.90;67.70
20866;DHT22;10593;48.398;10.698;2023-12-14T07:42:37;8.90;67.70
20866;DHT22;10593;48.398;10.698;2023-12-14T07:45:03;8.90;67.70
20866;DHT22;10593;48.398;10.698;2023-12-14T07:47:29;8.90;67.70
20866;DHT22;10593;48.398;10.698;2023-12-14T07:49:55;9.00;67.80
20866;DHT22;10593;48.398;10.698;2023-12-14T07:52:20;9.00;67.80
20866;DHT22;10593;48.398;10.698;2023-12-14T07:54:46;9.00;68.50
20866;DHT22;10593;48.398;10.698;2023-12-14T07:57:12;9.00;67.90
20866;DHT22;10593;48.398;10.698;2023-12-14T07:59:37;9.00;67.90
20866;DHT22;10593;48.398;10.698;2023-12-14T08:02:03;9.00;67.90
20866;DHT22;10593;48.398;10.698;2023-12-14T08:04:29;9.00;67.90
20866;DHT22;10593;48.398;10.698;2023-12-14T08:06:54;9.00;67.90
20866;DHT22;10593;48.398;10.698;2023-12-14T08:09:21;9.00;67.90
20866;DHT22;10593;48.398;10.698;2023-12-14T08:11:47;9.00;67.90
20866;DHT22;10593;48.398;10.698;2023-12-14T08:14:13;9.00;67.90
20866;DHT22;10593;48.398;10.698;2023-12-14T08:16:38;9.00;68.10
20866;DHT22;10593;48.398;10.698;2023-12-14T08:19:04;9.00;68.10
20866;DHT22;10593;48.398;10.698;2023-12-14T08:21:30;9.00;68.00
20866;DHT22;10593;48.398;10.698;2023-12-14T08:23:56;9.00;68.10
20866;DHT22;10593;48.398;10.698;2023-12-14T08:26:22;9.00;68.00
20866;DHT22;10593;48.398;10.698;2023-12-14T08:28:47;9.00;68.10
20866;DHT22;10593;48.398;10.698;2023-12-14T08:31:13;9.10;68.10
20866;DHT22;10593;48.398;10.698;2023-12-14T08:33:41;9.10;68.10
20866;DHT22;10593;48.398;10.698;2023-12-14T08:36:08;9.10;68.10
20866;DHT22;10593;48.398;10.698;2023-12-14T08:38:34;9.10;68.10
20866;DHT22;10593;48.398;10.698;2023-12-14T08:40:59;9.10;68.10
20866;DHT22;10593;48.398;10.698;2023-12-14T08:43:26;9.10;68.10
20866;DHT22;10593;48.398;10.698;2023-12-14T08:45:51;9.10;68.10
20866;DHT22;10593;48.398;10.698;2023-12-14T08:48:18;9.10;68.10
20866;DHT22;10593;48.398;10.698;2023-12-14T08:50:44;9.10;68.80
20866;DHT22;10593;48.398;10.698;2023-12-14T08:53:10;9.20;68.20
20866;DHT22;10593;48.398;10.698;2023-12-14T08:55:36;9.10;68.20
20866;DHT22;10593;48.398;10.698;2023-12-14T08:58:02;9.10;68.20
20866;DHT22;10593;48.398;10.698;2023-12-14T09:00:28;9.10;68.20
20866;DHT22;10593;48.398;10.698;2023-12-14T09:02:53;9.20;68.30
20866;DHT22;10593;48.398;10.698;2023-12-14T09:05:20;9.20;68.30
20866;DHT22;10593;48.398;10.698;2023-12-14T09:07:47;9.20;68.40
20866;DHT22;10593;48.398;10.698;2023-12-14T09:10:12;9.20;68.40
20866;DHT22;10593;48.398;10.698;2023-12-14T09:12:38;9.20;68.50
20866;DHT22;10593;48.398;10.698;2023-12-14T09:15:04;9.20;68.60
20866;DHT22;10593;48.398;10.698;2023-12-14T09:17:30;9.20;68.60
20866;DHT22;10593;48.398;10.698;2023-12-14T09:20:01;9.20;68.70
20866;DHT22;10593;48.398;10.698;2023-12-14T09:22:30;9.20;68.90
20866;DHT22;10593;48.398;10.698;2023-12-14T09:24:56;9.30;69.00
20866;DHT22;10593;48.398;10.698;2023-12-14T09:27:22;9.30;69.20
20866;DHT22;10593;48.398;10.698;2023-12-14T09:29:48;9.30;69.40
20866;DHT22;10593;48.398;10.698;2023-12-14T09:32:14;9.30;69.30
20866;DHT22;10593;48.398;10.698;2023-12-14T09:34:40;9.40;69.40
20866;DHT22;10593;48.398;10.698;2023-12-14T09:37:05;9.30;69.30
20866;DHT22;10593;48.398;10.698;2023-12-14T09:39:34;9.40;69.40
20866;DHT22;10593;48.398;10.698;2023-12-14T09:42:06;9.40;69.50
20866;DHT22;10593;48.398;10.698;2023-12-14T09:44:33;9.40;69.90
20866;DHT22;10593;48.398;10.698;2023-12-14T09:47:01;9.40;70.00
20866;DHT22;10593;48.398;10.698;2023-12-14T09:49:29;9.40;70.20
20866;DHT22;10593;48.398;10.698;2023-12-14T09:51:59;9.50;70.50
20866;DHT22;10593;48.398;10.698;2023-12-14T09:54:26;9.50;70.50
20866;DHT22;10593;48.398;10.698;2023-12-14T09:56:52;9.50;70.50
20866;DHT22;10593;48.398;10.698;2023-12-14T09:59:19;9.50;70.40
20866;DHT22;10593;48.398;10.698;2023-12-14T10:01:46;9.60;70.50
20866;DHT22;10593;48.398;10.698;2023-12-14T10:04:17;9.60;70.40
20866;DHT22;10593;48.398;10.698;2023-12-14T10:06:45;9.60;70.30
20866;DHT22;10593;48.398;10.698;2023-12-14T10:09:13;9.60;70.30
20866;DHT22;10593;48.398;10.698;2023-12-14T10:11:41;9.60;70.20
20866;DHT22;10593;48.398;10.698;2023-12-14T10:16:48;9.70;70.40
20866;DHT22;10593;48.398;10.698;2023-12-14T10:19:16;9.70;70.40
20866;DHT22;10593;48.398;10.698;2023-12-14T10:21:43;9.70;70.30
20866;DHT22;10593;48.398;10.698;2023-12-14T10:24:14;9.70;70.10
20866;DHT22;10593;48.398;10.698;2023-12-14T10:26:40;9.70;70.10
20866;DHT22;10593;48.398;10.698;2023-12-14T10:29:07;9.70;70.10
20866;DHT22;10593;48.398;10.698;2023-12-14T10:31:33;9.70;70.10
20866;DHT22;10593;48.398;10.698;2023-12-14T10:34:03;9.80;70.20
20866;DHT22;10593;48.398;10.698;2023-12-14T10:36:30;9.70;70.10
20866;DHT22;10593;48.398;10.698;2023-12-14T10:38:58;9.80;70.00
20866;DHT22;10593;48.398;10.698;2023-12-14T10:41:24;9.80;69.90
20866;DHT22;10593;48.398;10.698;2023-12-14T10:43:53;9.80;69.80
20866;DHT22;10593;48.398;10.698;2023-12-14T10:46:21;9.80;69.80
20866;DHT22;10593;48.398;10.698;2023-12-14T10:48:49;9.80;70.50
20866;DHT22;10593;48.398;10.698;2023-12-14T10:51:19;9.80;69.80
20866;DHT22;10593;48.398;10.698;2023-12-14T10:53:47;9.80;69.80
20866;DHT22;10593;48.398;10.698;2023-12-14T10:56:15;9.80;69.80
20866;DHT22;10593;48.398;10.698;2023-12-14T10:58:53;9.80;69.90
20866;DHT22;10593;48.398;10.698;2023-12-14T11:01:21;9.80;70.50
20866;DHT22;10593;48.398;10.698;2023-12-14T11:03:55;9.90;70.00
20866;DHT22;10593;48.398;10.698;2023-12-14T11:06:36;9.90;69.90
20866;DHT22;10593;48.398;10.698;2023-12-14T11:09:08;9.90;69.90
20866;DHT22;10593;48.398;10.698;2023-12-14T11:12:03;9.90;70.00
20866;DHT22;10593;48.398;10.698;2023-12-14T11:14:29;9.90;69.90
20866;DHT22;10593;48.398;10.698;2023-12-14T11:17:05;9.90;69.80
20866;DHT22;10593;48.398;10.698;2023-12-14T11:19:32;9.90;69.80
20866;DHT22;10593;48.398;10.698;2023-12-14T11:22:22;9.90;69.80
20866;DHT22;10593;48.398;10.698;2023-12-14T11:24:54;10.00;68.90
20866;DHT22;10593;48.398;10.698;2023-12-14T11:27:30;10.00;68.90
20866;DHT22;10593;48.398;10.698;2023-12-14T11:29:56;10.00;68.90
20866;DHT22;10593;48.398;10.698;2023-12-14T11:32:24;10.00;68.90
20866;DHT22;10593;48.398;10.698;2023-12-14T11:34:50;10.00;68.70
20866;DHT22;10593;48.398;10.698;2023-12-14T11:37:16;10.00;68.70
20866;DHT22;10593;48.398;10.698;2023-12-14T11:39:42;10.00;68.70
20866;DHT22;10593;48.398;10.698;2023-12-14T11:42:09;10.00;68.60
20866;DHT22;10593;48.398;10.698;2023-12-14T11:44:37;10.00;68.60
20866;DHT22;10593;48.398;10.698;2023-12-14T11:47:03;10.10;68.70
20866;DHT22;10593;48.398;10.698;2023-12-14T11:49:29;10.10;68.70
20866;DHT22;10593;48.398;10.698;2023-12-14T11:51:56;10.10;68.70
20866;DHT22;10593;48.398;10.698;2023-12-14T11:54:22;10.10;68.70
20866;DHT22;10593;48.398;10.698;2023-12-14T11:56:48;10.10;68.60
20866;DHT22;10593;48.398;10.698;2023-12-14T11:59:16;10.10;68.60
20866;DHT22;10593;48.398;10.698;2023-12-14T12:01:55;10.10;68.60
20866;DHT22;10593;48.398;10.698;2023-12-14T12:04:23;10.10;68.50
20866;DHT22;10593;48.398;10.698;2023-12-14T12:06:49;10.20;68.70
20866;DHT22;10593;48.398;10.698;2023-12-14T12:09:39;10.20;68.70
20866;DHT22;10593;48.398;10.698;2023-12-14T12:12:10;10.20;68.60
20866;DHT22;10593;48.398;10.698;2023-12-14T12:14:39;10.20;68.60
20866;DHT22;10593;48.398;10.698;2023-12-14T12:17:06;10.20;68.70
20866;DHT22;10593;48.398;10.698;2023-12-14T12:19:36;10.20;68.60
20866;DHT22;10593;48.398;10.698;2023-12-14T12:22:03;10.20;68.70
20866;DHT22;10593;48.398;10.698;2023-12-14T12:24:29;10.20;68.60
20866;DHT22;10593;48.398;10.698;2023-12-14T12:26:56;10.30;68.60
20866;DHT22;10593;48.398;10.698;2023-12-14T12:29:22;10.20;68.40
20866;DHT22;10593;48.398;10.698;2023-12-14T12:31:48;10.30;68.40
20866;DHT22;10593;48.398;10.698;2023-12-14T12:34:14;10.30;68.30
20866;DHT22;10593;48.398;10.698;2023-12-14T12:36:40;10.30;68.30
20866;DHT22;10593;48.398;10.698;2023-12-14T12:39:06;10.30;68.30
20866;DHT22;10593;48.398;10.698;2023-12-14T12:41:32;10.30;68.20
20866;DHT22;10593;48.398;10.698;2023-12-14T12:43:59;10.30;68.10
20866;DHT22;10593;48.398;10.698;2023-12-14T12:46:31;10.30;68.10
20866;DHT22;10593;48.398;10.698;2023-12-14T12:48:58;10.30;68.10
20866;DHT22;10593;48.398;10.698;2023-12-14T12:51:24;10.30;67.90
20866;DHT22;10593;48.398;10.698;2023-12-14T12:53:52;10.40;68.50
20866;DHT22;10593;48.398;10.698;2023-12-14T12:56:18;10.30;67.70
20866;DHT22;10593;48.398;10.698;2023-12-14T12:58:44;10.30;67.70
20866;DHT22;10593;48.398;10.698;2023-12-14T13:01:10;10.30;67.70
20866;DHT22;10593;48.398;10.698;2023-12-14T13:03:35;10.30;67.70
20866;DHT22;10593;48.398;10.698;2023-12-14T13:06:01;10.30;67.80
20866;DHT22;10593;48.398;10.698;2023-12-14T13:08:28;10.30;67.90
20866;DHT22;10593;48.398;10.698;2023-12-14T13:10:54;10.40;68.10
20866;DHT22;10593;48.398;10.698;2023-12-14T13:13:19;10.40;68.20
20866;DHT22;10593;48.398;10.698;2023-12-14T13:15:45;10.40;68.30
20866;DHT22;10593;48.398;10.698;2023-12-14T13:18:11;10.40;68.30
20866;DHT22;10593;48.398;10.698;2023-12-14T13:20:36;10.40;68.30
20866;DHT22;10593;48.398;10.698;2023-12-14T13:23:02;10.40;68.30
20866;DHT22;10593;48.398;10.698;2023-12-14T13:25:28;10.50;68.30
20866;DHT22;10593;48.398;10.698;2023-12-14T13:27:53;10.50;68.30
20866;DHT22;10593;48.398;10.698;2023-12-14T13:30:19;10.50;68.20
20866;DHT22;10593;48.398;10.698;2023-12-14T13:32:48;10.50;68.10
20866;DHT22;10593;48.398;10.698;2023-12-14T13:35:14;10.60;68.00
20866;DHT22;10593;48.398;10.698;2023-12-14T13:37:39;10.60;67.80
20866;DHT22;10593;48.398;10.698;2023-12-14T13:40:06;10.60;67.70
20866;DHT22;10593;48.398;10.698;2023-12-14T13:42:32;10.60;67.50
20866;DHT22;10593;48.398;10.698;2023-12-14T13:44:57;10.60;67.20
20866;DHT22;10593;48.398;10.698;2023-12-14T13:47:23;10.60;67.70
20866;DHT22;10593;48.398;10.698;2023-12-14T13:49:49;10.60;66.80
20866;DHT22;10593;48.398;10.698;2023-12-14T13:52:14;10.60;66.70
20866;DHT22;10593;48.398;10.698;2023-12-14T13:54:40;10.60;66.70
20866;DHT22;10593;48.398;10.698;2023-12-14T13:57:06;10.60;66.50
20866;DHT22;10593;48.398;10.698;2023-12-14T13:59:31;10.60;67.10
20866;DHT22;10593;48.398;10.698;2023-12-14T14:01:57;10.60;66.40
20866;DHT22;10593;48.398;10.698;2023-12-14T14:04:22;10.60;66.40
20866;DHT22;10593;48.398;10.698;2023-12-14T14:06:48;10.60;66.30
20866;DHT22;10593;48.398;10.698;2023-12-14T14:09:14;10.60;66.30
20866;DHT22;10593;48.398;10.698;2023-12-14T14:11:40;10.60;66.20
20866;DHT22;10593;48.398;10.698;2023-12-14T14:14:11;10.60;66.00
20866;DHT22;10593;48.398;10.698;2023-12-14T14:16:37;10.60;65.90
20866;DHT22;10593;48.398;10.698;2023-12-14T14:19:03;10.60;65.90
20866;DHT22;10593;48.398;10.698;2023-12-14T14:21:28;10.60;66.00
20866;DHT22;10593;48.398;10.698;2023-12-14T14:23:54;10.60;65.90
20866;DHT22;10593;48.398;10.698;2023-12-14T14:26:20;10.60;65.90
20866;DHT22;10593;48.398;10.698;2023-12-14T14:28:46;10.60;66.00
20866;DHT22;10593;48.398;10.698;2023-12-14T14:31:11;10.60;65.90
20866;DHT22;10593;48.398;10.698;2023-12-14T14:33:37;10.60;65.70
20866;DHT22;10593;48.398;10.698;2023-12-14T14:36:03;10.60;65.70
20866;DHT22;10593;48.398;10.698;2023-12-14T14:38:31;10.50;65.60
20866;DHT22;10593;48.398;10.698;2023-12-14T14:40:57;10.60;65.70
20866;DHT22;10593;48.398;10.698;2023-12-14T14:43:23;10.50;65.60
20866;DHT22;10593;48.398;10.698;2023-12-14T14:45:49;10.60;65.70
20866;DHT22;10593;48.398;10.698;2023-12-14T14:48:15;10.50;65.60
20866;DHT22;10593;48.398;10.698;2023-12-14T14:50:41;10.50;65.60
20866;DHT22;10593;48.398;10.698;2023-12-14T14:53:07;10.60;66.40
20866;DHT22;10593;48.398;10.698;2023-12-14T14:55:33;10.50;65.50
20866;DHT22;10593;48.398;10.698;2023-12-14T14:58:00;10.50;65.40
20866;DHT22;10593;48.398;10.698;2023-12-14T15:00:25;10.50;65.40
20866;DHT22;10593;48.398;10.698;2023-12-14T15:02:52;10.50;65.50
20866;DHT22;10593;48.398;10.698;2023-12-14T15:05:17;10.50;65.40
20866;DHT22;10593;48.398;10.698;2023-12-14T15:07:43;10.50;65.50
20866;DHT22;10593;48.398;10.698;2023-12-14T15:10:09;10.50;65.50
20866;DHT22;10593;48.398;10.698;2023-12-14T15:12:35;10.50;65.50
20866;DHT22;10593;48.398;10.698;2023-12-14T15:15:00;10.40;65.40
20866;DHT22;10593;48.398;10.698;2023-12-14T15:17:26;10.40;65.30
20866;DHT22;10593;48.398;10.698;2023-12-14T15:19:52;10.40;65.20
20866;DHT22;10593;48.398;10.698;2023-12-14T15:22:17;10.40;65.20
20866;DHT22;10593;48.398;10.698;2023-12-14T15:24:43;10.40;65.20
20866;DHT22;10593;48.398;10.698;2023-12-14T15:27:09;10.40;65.20